sensor_id;sensor_type;location;lat;lon;timestamp;P1;durP1;ratioP1;P2;durP2;ratioP2
14235;SDS011;7202;50.718;7.072;2023-06-10T00:01:24;8.40;;;7.55;;
14235;SDS011;7202;50.718;7.072;2023-06-10T00:03:54;8.73;;;7.93;;
14235;SDS011;7202;50.718;7.072;2023-06-10T00:06:23;8.23;;;7.43;;
14235;SDS011;7202;50.718;7.072;2023-06-10T00:08:52;8.23;;;7.43;;
14235;SDS011;7202;50.718;7.072;2023-06-10T00:11:21;8.35;;;7.65;;
14235;SDS011;7202;50.718;7.072;2023-06-10T00:13:51;8.35;;;7.57;;
14235;SDS011;7202;50.718;7.072;2023-06-10T00:16:20;8.25;;;7.43;;
14235;SDS011;7202;50.718;7.072;2023-06-10T00:18:48;9.90;;;7.82;;
14235;SDS011;7202;50.718;7.072;2023-06-10T00:21:18;8.85;;;7.95;;
14235;SDS011;7202;50.718;7.072;2023-06-10T00:23:46;8.13;;;7.32;;
14235;SDS011;7202;50.718;7.072;2023-06-10T00:26:15;9.45;;;7.80;;
14235;SDS011;7202;50.718;7.072;2023-06-10T00:28:44;8.98;;;8.10;;
14235;SDS011;7202;50.718;7.072;2023-06-10T00:31:15;9.00;;;8.00;;
14235;SDS011;7202;50.718;7.072;2023-06-10T00:33:44;8.68;;;7.78;;
14235;SDS011;7202;50.718;7.072;2023-06-10T00:36:12;8.65;;;7.75;;
14235;SDS011;7202;50.718;7.072;2023-06-10T00:38:41;8.70;;;7.90;;
14235;SDS011;7202;50.718;7.072;2023-06-10T00:41:10;8.57;;;7.70;;
14235;SDS011;7202;50.718;7.072;2023-06-10T00:43:38;8.25;;;7.50;;
14235;SDS011;7202;50.718;7.072;2023-06-10T00:46:07;8.65;;;7.85;;
14235;SDS011;7202;50.718;7.072;2023-06-10T00:48:37;9.10;;;8.30;;
14235;SDS011;7202;50.718;7.072;2023-06-10T00:51:08;11.35;;;8.02;;
14235;SDS011;7202;50.718;7.072;2023-06-10T00:53:39;9.20;;;8.30;;
14235;SDS011;7202;50.718;7.072;2023-06-10T00:56:08;10.82;;;7.40;;
14235;SDS011;7202;50.718;7.072;2023-06-10T00:58:38;9.32;;;8.07;;
14235;SDS011;7202;50.718;7.072;2023-06-10T01:01:06;9.02;;;8.23;;
14235;SDS011;7202;50.718;7.072;2023-06-10T01:03:39;9.57;;;8.50;;
14235;SDS011;7202;50.718;7.072;2023-06-10T01:06:09;8.88;;;8.00;;
14235;SDS011;7202;50.718;7.072;2023-06-10T01:08:46;9.18;;;8.05;;
14235;SDS011;7202;50.718;7.072;2023-06-10T01:11:21;8.75;;;7.95;;
14235;SDS011;7202;50.718;7.072;2023-06-10T01:13:53;8.98;;;7.88;;
14235;SDS011;7202;50.718;7.072;2023-06-10T01:16:23;8.60;;;7.80;;
14235;SDS011;7202;50.718;7.072;2023-06-10T01:18:54;9.45;;;8.20;;
14235;SDS011;7202;50.718;7.072;2023-06-10T01:21:26;9.25;;;8.38;;
14235;SDS011;7202;50.718;7.072;2023-06-10T01:23:54;11.18;;;8.07;;
14235;SDS011;7202;50.718;7.072;2023-06-10T01:26:28;9.32;;;8.52;;
14235;SDS011;7202;50.718;7.072;2023-06-10T01:28:58;8.75;;;7.95;;
14235;SDS011;7202;50.718;7.072;2023-06-10T01:31:33;9.40;;;8.50;;
14235;SDS011;7202;50.718;7.072;2023-06-10T01:34:09;10.48;;;8.77;;
14235;SDS011;7202;50.718;7.072;2023-06-10T01:36:41;9.27;;;8.38;;
14235;SDS011;7202;50.718;7.072;2023-06-10T01:39:14;10.40;;;8.40;;
14235;SDS011;7202;50.718;7.072;2023-06-10T01:41:44;9.70;;;8.80;;
14235;SDS011;7202;50.718;7.072;2023-06-10T01:44:17;9.15;;;8.13;;
14235;SDS011;7202;50.718;7.072;2023-06-10T01:46:46;9.73;;;8.88;;
14235;SDS011;7202;50.718;7.072;2023-06-10T01:49:15;9.52;;;8.63;;
14235;SDS011;7202;50.718;7.072;2023-06-10T01:51:45;10.18;;;9.15;;
14235;SDS011;7202;50.718;7.072;2023-06-10T01:54:14;9.68;;;8.68;;
14235;SDS011;7202;50.718;7.072;2023-06-10T01:56:43;9.68;;;8.68;;
14235;SDS011;7202;50.718;7.072;2023-06-10T01:59:11;9.70;;;8.70;;
14235;SDS011;7202;50.718;7.072;2023-06-10T02:01:40;10.48;;;9.48;;
14235;SDS011;7202;50.718;7.072;2023-06-10T02:04:10;10.18;;;8.82;;
14235;SDS011;7202;50.718;7.072;2023-06-10T02:06:38;9.75;;;8.85;;
14235;SDS011;7202;50.718;7.072;2023-06-10T02:09:08;9.50;;;8.52;;
14235;SDS011;7202;50.718;7.072;2023-06-10T02:11:37;9.68;;;8.73;;
14235;SDS011;7202;50.718;7.072;2023-06-10T02:14:05;10.10;;;9.20;;
14235;SDS011;7202;50.718;7.072;2023-06-10T02:16:37;9.98;;;9.07;;
14235;SDS011;7202;50.718;7.072;2023-06-10T02:19:06;10.40;;;9.43;;
14235;SDS011;7202;50.718;7.072;2023-06-10T02:21:35;10.48;;;9.48;;
14235;SDS011;7202;50.718;7.072;2023-06-10T02:24:04;10.75;;;9.73;;
14235;SDS011;7202;50.718;7.072;2023-06-10T02:26:36;9.30;;;8.40;;
14235;SDS011;7202;50.718;7.072;2023-06-10T02:29:05;9.98;;;9.05;;
14235;SDS011;7202;50.718;7.072;2023-06-10T02:31:34;10.50;;;9.48;;
14235;SDS011;7202;50.718;7.072;2023-06-10T02:34:03;11.10;;;9.15;;
14235;SDS011;7202;50.718;7.072;2023-06-10T02:36:32;9.73;;;8.77;;
14235;SDS011;7202;50.718;7.072;2023-06-10T02:39:02;10.50;;;9.57;;
14235;SDS011;7202;50.718;7.072;2023-06-10T02:41:32;9.95;;;9.05;;
14235;SDS011;7202;50.718;7.072;2023-06-10T02:44:03;11.02;;;9.85;;
14235;SDS011;7202;50.718;7.072;2023-06-10T02:46:33;10.82;;;8.95;;
14235;SDS011;7202;50.718;7.072;2023-06-10T02:49:02;10.57;;;9.57;;
14235;SDS011;7202;50.718;7.072;2023-06-10T02:51:31;10.63;;;9.55;;
14235;SDS011;7202;50.718;7.072;2023-06-10T02:54:02;9.82;;;8.82;;
14235;SDS011;7202;50.718;7.072;2023-06-10T02:56:31;10.68;;;9.70;;
14235;SDS011;7202;50.718;7.072;2023-06-10T02:59:03;10.77;;;9.65;;
14235;SDS011;7202;50.718;7.072;2023-06-10T03:01:34;10.57;;;9.57;;
14235;SDS011;7202;50.718;7.072;2023-06-10T03:04:07;10.27;;;9.30;;
14235;SDS011;7202;50.718;7.072;2023-06-10T03:06:37;11.00;;;9.43;;
14235;SDS011;7202;50.718;7.072;2023-06-10T03:09:23;10.93;;;9.85;;
14235;SDS011;7202;50.718;7.072;2023-06-10T03:11:55;10.73;;;9.70;;
14235;SDS011;7202;50.718;7.072;2023-06-10T03:14:26;10.98;;;9.85;;
14235;SDS011;7202;50.718;7.072;2023-06-10T03:16:54;10.10;;;9.10;;
14235;SDS011;7202;50.718;7.072;2023-06-10T03:19:24;10.52;;;9.18;;
14235;SDS011;7202;50.718;7.072;2023-06-10T03:22:06;10.70;;;9.23;;
14235;SDS011;7202;50.718;7.072;2023-06-10T03:24:39;10.98;;;9.98;;
14235;SDS011;7202;50.718;7.072;2023-06-10T03:27:10;11.10;;;10.00;;
14235;SDS011;7202;50.718;7.072;2023-06-10T03:29:42;13.43;;;9.70;;
14235;SDS011;7202;50.718;7.072;2023-06-10T03:32:11;10.98;;;9.00;;
14235;SDS011;7202;50.718;7.072;2023-06-10T03:34:41;10.48;;;9.48;;
14235;SDS011;7202;50.718;7.072;2023-06-10T03:37:13;10.05;;;9.05;;
14235;SDS011;7202;50.718;7.072;2023-06-10T03:39:44;10.20;;;9.20;;
14235;SDS011;7202;50.718;7.072;2023-06-10T03:42:12;11.05;;;9.65;;
14235;SDS011;7202;50.718;7.072;2023-06-10T03:44:42;11.45;;;10.32;;
14235;SDS011;7202;50.718;7.072;2023-06-10T03:47:11;11.38;;;10.25;;
14235;SDS011;7202;50.718;7.072;2023-06-10T03:49:40;10.63;;;9.63;;
14235;SDS011;7202;50.718;7.072;2023-06-10T03:52:11;10.80;;;9.80;;
14235;SDS011;7202;50.718;7.072;2023-06-10T03:54:40;10.43;;;9.38;;
14235;SDS011;7202;50.718;7.072;2023-06-10T03:57:09;11.15;;;10.02;;
14235;SDS011;7202;50.718;7.072;2023-06-10T03:59:37;10.65;;;9.52;;
14235;SDS011;7202;50.718;7.072;2023-06-10T04:02:07;10.75;;;9.68;;
14235;SDS011;7202;50.718;7.072;2023-06-10T04:04:36;11.90;;;9.57;;
14235;SDS011;7202;50.718;7.072;2023-06-10T04:07:05;10.68;;;9.65;;
14235;SDS011;7202;50.718;7.072;2023-06-10T04:09:35;11.35;;;10.23;;
14235;SDS011;7202;50.718;7.072;2023-06-10T04:12:04;10.10;;;9.20;;
14235;SDS011;7202;50.718;7.072;2023-06-10T04:14:35;11.80;;;10.25;;
14235;SDS011;7202;50.718;7.072;2023-06-10T04:17:05;12.85;;;10.25;;
14235;SDS011;7202;50.718;7.072;2023-06-10T04:19:37;11.00;;;10.00;;
14235;SDS011;7202;50.718;7.072;2023-06-10T04:22:06;11.30;;;10.00;;
14235;SDS011;7202;50.718;7.072;2023-06-10T04:24:35;10.00;;;9.10;;
14235;SDS011;7202;50.718;7.072;2023-06-10T04:27:06;11.15;;;10.05;;
14235;SDS011;7202;50.718;7.072;2023-06-10T04:29:35;10.70;;;9.57;;
14235;SDS011;7202;50.718;7.072;2023-06-10T04:32:04;10.68;;;9.68;;
14235;SDS011;7202;50.718;7.072;2023-06-10T04:34:35;11.02;;;9.95;;
14235;SDS011;7202;50.718;7.072;2023-06-10T04:37:06;11.18;;;10.07;;
14235;SDS011;7202;50.718;7.072;2023-06-10T04:39:34;10.15;;;9.25;;
14235;SDS011;7202;50.718;7.072;2023-06-10T04:42:06;11.13;;;10.00;;
14235;SDS011;7202;50.718;7.072;2023-06-10T04:44:35;10.68;;;9.63;;
14235;SDS011;7202;50.718;7.072;2023-06-10T04:47:06;10.25;;;9.18;;
14235;SDS011;7202;50.718;7.072;2023-06-10T04:49:37;10.98;;;9.93;;
14235;SDS011;7202;50.718;7.072;2023-06-10T04:52:06;10.57;;;9.68;;
14235;SDS011;7202;50.718;7.072;2023-06-10T04:54:38;10.75;;;9.65;;
14235;SDS011;7202;50.718;7.072;2023-06-10T04:57:07;10.35;;;9.35;;
14235;SDS011;7202;50.718;7.072;2023-06-10T04:59:35;11.95;;;9.70;;
14235;SDS011;7202;50.718;7.072;2023-06-10T05:02:05;10.77;;;9.70;;
14235;SDS011;7202;50.718;7.072;2023-06-10T05:04:33;9.88;;;8.98;;
14235;SDS011;7202;50.718;7.072;2023-06-10T05:07:04;10.68;;;9.45;;
14235;SDS011;7202;50.718;7.072;2023-06-10T05:09:36;12.98;;;9.65;;
14235;SDS011;7202;50.718;7.072;2023-06-10T05:12:05;10.88;;;9.77;;
14235;SDS011;7202;50.718;7.072;2023-06-10T05:14:34;10.45;;;9.10;;
14235;SDS011;7202;50.718;7.072;2023-06-10T05:17:03;13.50;;;9.13;;
14235;SDS011;7202;50.718;7.072;2023-06-10T05:19:33;10.63;;;9.52;;
14235;SDS011;7202;50.718;7.072;2023-06-10T05:22:04;10.07;;;9.07;;
14235;SDS011;7202;50.718;7.072;2023-06-10T05:24:33;12.02;;;9.63;;
14235;SDS011;7202;50.718;7.072;2023-06-10T05:27:01;9.75;;;8.85;;
14235;SDS011;7202;50.718;7.072;2023-06-10T05:29:31;10.00;;;9.10;;
14235;SDS011;7202;50.718;7.072;2023-06-10T05:32:00;9.48;;;8.57;;
14235;SDS011;7202;50.718;7.072;2023-06-10T05:34:30;10.70;;;9.63;;
14235;SDS011;7202;50.718;7.072;2023-06-10T05:36:59;9.90;;;9.00;;
14235;SDS011;7202;50.718;7.072;2023-06-10T05:39:29;9.88;;;8.88;;
14235;SDS011;7202;50.718;7.072;2023-06-10T05:41:58;9.90;;;9.00;;
14235;SDS011;7202;50.718;7.072;2023-06-10T05:44:28;9.50;;;8.60;;
14235;SDS011;7202;50.718;7.072;2023-06-10T05:46:56;10.18;;;9.18;;
14235;SDS011;7202;50.718;7.072;2023-06-10T05:49:25;10.18;;;9.20;;
14235;SDS011;7202;50.718;7.072;2023-06-10T05:51:55;11.93;;;10.45;;
14235;SDS011;7202;50.718;7.072;2023-06-10T05:54:25;12.30;;;9.48;;
14235;SDS011;7202;50.718;7.072;2023-06-10T05:56:57;11.77;;;9.77;;
14235;SDS011;7202;50.718;7.072;2023-06-10T05:59:26;11.35;;;10.25;;
14235;SDS011;7202;50.718;7.072;2023-06-10T06:01:54;15.10;;;11.95;;
14235;SDS011;7202;50.718;7.072;2023-06-10T06:04:23;16.55;;;13.38;;
14235;SDS011;7202;50.718;7.072;2023-06-10T06:06:52;20.02;;;14.10;;
14235;SDS011;7202;50.718;7.072;2023-06-10T06:09:21;19.85;;;13.20;;
14235;SDS011;7202;50.718;7.072;2023-06-10T06:11:49;21.13;;;12.40;;
14235;SDS011;7202;50.718;7.072;2023-06-10T06:14:19;15.82;;;12.32;;
14235;SDS011;7202;50.718;7.072;2023-06-10T06:16:48;13.30;;;11.00;;
14235;SDS011;7202;50.718;7.072;2023-06-10T06:19:17;13.55;;;10.75;;
14235;SDS011;7202;50.718;7.072;2023-06-10T06:21:45;14.15;;;9.98;;
14235;SDS011;7202;50.718;7.072;2023-06-10T06:24:14;10.07;;;8.90;;
14235;SDS011;7202;50.718;7.072;2023-06-10T06:26:43;11.65;;;9.23;;
14235;SDS011;7202;50.718;7.072;2023-06-10T06:29:12;9.50;;;8.60;;
14235;SDS011;7202;50.718;7.072;2023-06-10T06:31:42;8.52;;;7.72;;
14235;SDS011;7202;50.718;7.072;2023-06-10T06:34:13;11.82;;;8.27;;
14235;SDS011;7202;50.718;7.072;2023-06-10T06:36:42;9.50;;;7.80;;
14235;SDS011;7202;50.718;7.072;2023-06-10T06:39:11;9.32;;;7.80;;
14235;SDS011;7202;50.718;7.072;2023-06-10T06:41:41;8.73;;;7.57;;
14235;SDS011;7202;50.718;7.072;2023-06-10T06:44:10;8.30;;;7.55;;
14235;SDS011;7202;50.718;7.072;2023-06-10T06:46:44;9.50;;;7.55;;
14235;SDS011;7202;50.718;7.072;2023-06-10T06:49:13;10.05;;;7.43;;
14235;SDS011;7202;50.718;7.072;2023-06-10T06:51:42;9.88;;;7.47;;
14235;SDS011;7202;50.718;7.072;2023-06-10T06:54:11;11.80;;;7.07;;
14235;SDS011;7202;50.718;7.072;2023-06-10T06:56:39;8.70;;;7.10;;
14235;SDS011;7202;50.718;7.072;2023-06-10T06:59:08;9.05;;;6.70;;
14235;SDS011;7202;50.718;7.072;2023-06-10T07:01:37;11.05;;;7.40;;
14235;SDS011;7202;50.718;7.072;2023-06-10T07:04:07;7.93;;;7.22;;
14235;SDS011;7202;50.718;7.072;2023-06-10T07:06:36;7.63;;;6.82;;
14235;SDS011;7202;50.718;7.072;2023-06-10T07:09:05;7.53;;;6.75;;
14235;SDS011;7202;50.718;7.072;2023-06-10T07:11:34;8.07;;;7.28;;
14235;SDS011;7202;50.718;7.072;2023-06-10T07:14:02;8.05;;;7.00;;
14235;SDS011;7202;50.718;7.072;2023-06-10T07:16:36;7.38;;;6.50;;
14235;SDS011;7202;50.718;7.072;2023-06-10T07:19:05;7.70;;;6.97;;
14235;SDS011;7202;50.718;7.072;2023-06-10T07:21:35;8.20;;;7.20;;
14235;SDS011;7202;50.718;7.072;2023-06-10T07:24:05;10.27;;;6.60;;
14235;SDS011;7202;50.718;7.072;2023-06-10T07:26:33;7.60;;;6.90;;
14235;SDS011;7202;50.718;7.072;2023-06-10T07:29:02;9.93;;;7.00;;
14235;SDS011;7202;50.718;7.072;2023-06-10T07:31:31;7.30;;;6.60;;
14235;SDS011;7202;50.718;7.072;2023-06-10T07:34:00;9.35;;;6.25;;
14235;SDS011;7202;50.718;7.072;2023-06-10T07:36:29;9.20;;;6.55;;
14235;SDS011;7202;50.718;7.072;2023-06-10T07:38:58;8.95;;;6.47;;
14235;SDS011;7202;50.718;7.072;2023-06-10T07:41:27;7.85;;;6.47;;
14235;SDS011;7202;50.718;7.072;2023-06-10T07:43:56;8.93;;;6.70;;
14235;SDS011;7202;50.718;7.072;2023-06-10T07:46:24;9.70;;;6.47;;
14235;SDS011;7202;50.718;7.072;2023-06-10T07:48:54;7.45;;;6.22;;
14235;SDS011;7202;50.718;7.072;2023-06-10T07:51:22;7.40;;;6.68;;
14235;SDS011;7202;50.718;7.072;2023-06-10T07:53:51;7.30;;;6.30;;
14235;SDS011;7202;50.718;7.072;2023-06-10T07:56:21;7.32;;;6.68;;
14235;SDS011;7202;50.718;7.072;2023-06-10T07:58:50;7.38;;;6.63;;
14235;SDS011;7202;50.718;7.072;2023-06-10T08:01:19;7.43;;;6.47;;
14235;SDS011;7202;50.718;7.072;2023-06-10T08:03:47;9.57;;;6.97;;
14235;SDS011;7202;50.718;7.072;2023-06-10T08:06:16;7.80;;;6.45;;
14235;SDS011;7202;50.718;7.072;2023-06-10T08:08:45;7.05;;;6.45;;
14235;SDS011;7202;50.718;7.072;2023-06-10T08:11:14;15.18;;;7.53;;
14235;SDS011;7202;50.718;7.072;2023-06-10T08:13:44;7.68;;;6.70;;
14235;SDS011;7202;50.718;7.072;2023-06-10T08:16:13;8.20;;;7.35;;
14235;SDS011;7202;50.718;7.072;2023-06-10T08:18:41;7.07;;;6.38;;
14235;SDS011;7202;50.718;7.072;2023-06-10T08:21:10;7.00;;;6.30;;
14235;SDS011;7202;50.718;7.072;2023-06-10T08:23:38;8.38;;;7.00;;
14235;SDS011;7202;50.718;7.072;2023-06-10T08:26:07;9.98;;;6.57;;
14235;SDS011;7202;50.718;7.072;2023-06-10T08:28:36;10.23;;;6.80;;
14235;SDS011;7202;50.718;7.072;2023-06-10T08:31:06;8.30;;;6.80;;
14235;SDS011;7202;50.718;7.072;2023-06-10T08:33:35;8.90;;;7.15;;
14235;SDS011;7202;50.718;7.072;2023-06-10T08:36:03;11.77;;;7.68;;
14235;SDS011;7202;50.718;7.072;2023-06-10T08:38:32;7.18;;;6.47;;
14235;SDS011;7202;50.718;7.072;2023-06-10T08:41:02;7.18;;;6.45;;
14235;SDS011;7202;50.718;7.072;2023-06-10T08:43:34;9.20;;;7.47;;
14235;SDS011;7202;50.718;7.072;2023-06-10T08:46:10;8.05;;;7.25;;
14235;SDS011;7202;50.718;7.072;2023-06-10T08:48:42;7.90;;;7.10;;
14235;SDS011;7202;50.718;7.072;2023-06-10T08:51:12;8.68;;;7.05;;
14235;SDS011;7202;50.718;7.072;2023-06-10T08:53:45;9.52;;;7.10;;
14235;SDS011;7202;50.718;7.072;2023-06-10T08:56:18;10.43;;;6.55;;
14235;SDS011;7202;50.718;7.072;2023-06-10T08:58:48;7.60;;;6.80;;
14235;SDS011;7202;50.718;7.072;2023-06-10T09:01:18;7.55;;;6.70;;
14235;SDS011;7202;50.718;7.072;2023-06-10T09:03:47;8.65;;;7.05;;
14235;SDS011;7202;50.718;7.072;2023-06-10T09:06:17;7.40;;;6.78;;
14235;SDS011;7202;50.718;7.072;2023-06-10T09:08:46;11.43;;;7.43;;
14235;SDS011;7202;50.718;7.072;2023-06-10T09:11:15;10.40;;;7.03;;
14235;SDS011;7202;50.718;7.072;2023-06-10T09:13:43;8.23;;;7.45;;
14235;SDS011;7202;50.718;7.072;2023-06-10T09:16:12;9.05;;;6.63;;
14235;SDS011;7202;50.718;7.072;2023-06-10T09:18:43;7.28;;;6.68;;
14235;SDS011;7202;50.718;7.072;2023-06-10T09:21:12;10.52;;;7.10;;
14235;SDS011;7202;50.718;7.072;2023-06-10T09:23:41;9.73;;;7.03;;
14235;SDS011;7202;50.718;7.072;2023-06-10T09:26:14;10.57;;;6.97;;
14235;SDS011;7202;50.718;7.072;2023-06-10T09:28:44;7.32;;;6.57;;
14235;SDS011;7202;50.718;7.072;2023-06-10T09:31:15;7.50;;;6.80;;
14235;SDS011;7202;50.718;7.072;2023-06-10T09:33:46;8.30;;;7.03;;
14235;SDS011;7202;50.718;7.072;2023-06-10T09:36:21;7.55;;;6.78;;
14235;SDS011;7202;50.718;7.072;2023-06-10T09:38:51;7.63;;;6.93;;
14235;SDS011;7202;50.718;7.072;2023-06-10T09:41:19;8.05;;;7.25;;
14235;SDS011;7202;50.718;7.072;2023-06-10T09:43:48;9.63;;;6.32;;
14235;SDS011;7202;50.718;7.072;2023-06-10T09:46:17;10.55;;;6.80;;
14235;SDS011;7202;50.718;7.072;2023-06-10T09:48:48;8.55;;;6.38;;
14235;SDS011;7202;50.718;7.072;2023-06-10T09:51:17;8.88;;;7.00;;
14235;SDS011;7202;50.718;7.072;2023-06-10T09:53:48;8.15;;;6.90;;
14235;SDS011;7202;50.718;7.072;2023-06-10T09:56:18;7.07;;;6.38;;
14235;SDS011;7202;50.718;7.072;2023-06-10T09:58:52;11.50;;;7.05;;
14235;SDS011;7202;50.718;7.072;2023-06-10T10:01:21;8.30;;;7.10;;
14235;SDS011;7202;50.718;7.072;2023-06-10T10:03:52;9.05;;;6.55;;
14235;SDS011;7202;50.718;7.072;2023-06-10T10:06:21;7.65;;;6.82;;
14235;SDS011;7202;50.718;7.072;2023-06-10T10:08:50;7.78;;;6.90;;
14235;SDS011;7202;50.718;7.072;2023-06-10T10:11:20;7.50;;;6.63;;
14235;SDS011;7202;50.718;7.072;2023-06-10T10:13:50;6.97;;;6.38;;
14235;SDS011;7202;50.718;7.072;2023-06-10T10:16:20;9.48;;;7.10;;
14235;SDS011;7202;50.718;7.072;2023-06-10T10:18:52;8.18;;;6.15;;
14235;SDS011;7202;50.718;7.072;2023-06-10T10:21:23;8.52;;;7.05;;
14235;SDS011;7202;50.718;7.072;2023-06-10T10:23:57;7.53;;;6.38;;
14235;SDS011;7202;50.718;7.072;2023-06-10T10:26:31;7.25;;;6.55;;
14235;SDS011;7202;50.718;7.072;2023-06-10T10:29:05;7.05;;;6.45;;
14235;SDS011;7202;50.718;7.072;2023-06-10T10:31:39;6.68;;;6.07;;
14235;SDS011;7202;50.718;7.072;2023-06-10T10:34:13;7.50;;;6.70;;
14235;SDS011;7202;50.718;7.072;2023-06-10T10:36:44;8.52;;;6.20;;
14235;SDS011;7202;50.718;7.072;2023-06-10T10:39:15;6.78;;;6.18;;
14235;SDS011;7202;50.718;7.072;2023-06-10T10:41:44;6.65;;;6.05;;
14235;SDS011;7202;50.718;7.072;2023-06-10T10:44:14;6.70;;;6.05;;
14235;SDS011;7202;50.718;7.072;2023-06-10T10:46:44;7.00;;;6.30;;
14235;SDS011;7202;50.718;7.072;2023-06-10T10:49:19;11.02;;;6.25;;
14235;SDS011;7202;50.718;7.072;2023-06-10T10:51:56;7.60;;;5.88;;
14235;SDS011;7202;50.718;7.072;2023-06-10T10:54:29;9.10;;;6.40;;
14235;SDS011;7202;50.718;7.072;2023-06-10T10:57:15;10.63;;;6.72;;
14235;SDS011;7202;50.718;7.072;2023-06-10T10:59:46;6.78;;;5.82;;
14235;SDS011;7202;50.718;7.072;2023-06-10T11:02:32;7.55;;;6.72;;
14235;SDS011;7202;50.718;7.072;2023-06-10T11:05:04;6.55;;;5.57;;
14235;SDS011;7202;50.718;7.072;2023-06-10T11:07:34;9.02;;;6.88;;
14235;SDS011;7202;50.718;7.072;2023-06-10T11:10:05;7.10;;;6.40;;
14235;SDS011;7202;50.718;7.072;2023-06-10T11:12:40;9.13;;;6.03;;
14235;SDS011;7202;50.718;7.072;2023-06-10T11:15:10;7.53;;;6.43;;
14235;SDS011;7202;50.718;7.072;2023-06-10T11:20:50;8.80;;;6.65;;
14235;SDS011;7202;50.718;7.072;2023-06-10T11:23:32;6.70;;;6.20;;
14235;SDS011;7202;50.718;7.072;2023-06-10T11:29:06;7.28;;;6.53;;
14235;SDS011;7202;50.718;7.072;2023-06-10T11:31:40;7.50;;;6.45;;
14235;SDS011;7202;50.718;7.072;2023-06-10T11:34:11;7.97;;;6.15;;
14235;SDS011;7202;50.718;7.072;2023-06-10T11:36:45;7.00;;;6.40;;
14235;SDS011;7202;50.718;7.072;2023-06-10T11:39:14;6.88;;;5.90;;
14235;SDS011;7202;50.718;7.072;2023-06-10T11:41:43;9.27;;;6.60;;
14235;SDS011;7202;50.718;7.072;2023-06-10T11:44:14;11.18;;;6.47;;
14235;SDS011;7202;50.718;7.072;2023-06-10T11:46:47;8.20;;;6.40;;
14235;SDS011;7202;50.718;7.072;2023-06-10T11:49:17;7.40;;;6.20;;
14235;SDS011;7202;50.718;7.072;2023-06-10T11:51:49;6.55;;;5.85;;
14235;SDS011;7202;50.718;7.072;2023-06-10T11:54:19;6.32;;;5.72;;
14235;SDS011;7202;50.718;7.072;2023-06-10T11:56:49;6.35;;;5.60;;
14235;SDS011;7202;50.718;7.072;2023-06-10T11:59:18;6.40;;;5.80;;
14235;SDS011;7202;50.718;7.072;2023-06-10T12:01:55;7.90;;;5.55;;
14235;SDS011;7202;50.718;7.072;2023-06-10T12:04:24;5.93;;;5.30;;
14235;SDS011;7202;50.718;7.072;2023-06-10T12:06:54;7.93;;;5.63;;
14235;SDS011;7202;50.718;7.072;2023-06-10T12:09:23;10.30;;;5.53;;
14235;SDS011;7202;50.718;7.072;2023-06-10T12:11:55;5.80;;;5.25;;
14235;SDS011;7202;50.718;7.072;2023-06-10T12:17:20;7.20;;;4.53;;
14235;SDS011;7202;50.718;7.072;2023-06-10T12:19:50;6.82;;;5.10;;
14235;SDS011;7202;50.718;7.072;2023-06-10T12:22:21;5.45;;;4.72;;
14235;SDS011;7202;50.718;7.072;2023-06-10T12:24:58;7.07;;;4.80;;
14235;SDS011;7202;50.718;7.072;2023-06-10T12:27:30;11.52;;;4.95;;
14235;SDS011;7202;50.718;7.072;2023-06-10T12:29:59;6.28;;;5.38;;
14235;SDS011;7202;50.718;7.072;2023-06-10T12:32:34;6.18;;;5.10;;
14235;SDS011;7202;50.718;7.072;2023-06-10T12:35:05;5.22;;;4.72;;
14235;SDS011;7202;50.718;7.072;2023-06-10T12:37:36;11.35;;;5.10;;
14235;SDS011;7202;50.718;7.072;2023-06-10T12:40:09;5.65;;;4.65;;
14235;SDS011;7202;50.718;7.072;2023-06-10T12:42:39;7.15;;;4.40;;
14235;SDS011;7202;50.718;7.072;2023-06-10T12:45:09;6.35;;;4.97;;
14235;SDS011;7202;50.718;7.072;2023-06-10T12:47:40;6.18;;;5.43;;
14235;SDS011;7202;50.718;7.072;2023-06-10T12:50:09;7.70;;;4.68;;
14235;SDS011;7202;50.718;7.072;2023-06-10T12:52:40;5.20;;;4.70;;
14235;SDS011;7202;50.718;7.072;2023-06-10T12:55:09;6.15;;;4.68;;
14235;SDS011;7202;50.718;7.072;2023-06-10T12:57:47;8.48;;;4.80;;
14235;SDS011;7202;50.718;7.072;2023-06-10T13:00:17;5.80;;;5.20;;
14235;SDS011;7202;50.718;7.072;2023-06-10T13:02:48;5.20;;;4.78;;
14235;SDS011;7202;50.718;7.072;2023-06-10T13:05:17;6.00;;;4.30;;
14235;SDS011;7202;50.718;7.072;2023-06-10T13:07:49;7.82;;;5.35;;
14235;SDS011;7202;50.718;7.072;2023-06-10T13:10:18;5.22;;;4.72;;
14235;SDS011;7202;50.718;7.072;2023-06-10T13:12:51;5.32;;;4.85;;
14235;SDS011;7202;50.718;7.072;2023-06-10T13:15:22;7.22;;;4.95;;
14235;SDS011;7202;50.718;7.072;2023-06-10T13:17:53;6.45;;;4.88;;
14235;SDS011;7202;50.718;7.072;2023-06-10T13:20:22;6.10;;;5.00;;
14235;SDS011;7202;50.718;7.072;2023-06-10T13:22:52;6.40;;;4.90;;
14235;SDS011;7202;50.718;7.072;2023-06-10T13:25:20;6.70;;;5.03;;
14235;SDS011;7202;50.718;7.072;2023-06-10T13:27:49;6.55;;;5.13;;
14235;SDS011;7202;50.718;7.072;2023-06-10T13:30:18;10.18;;;5.18;;
14235;SDS011;7202;50.718;7.072;2023-06-10T13:32:47;8.23;;;5.50;;
14235;SDS011;7202;50.718;7.072;2023-06-10T13:35:16;9.93;;;6.32;;
14235;SDS011;7202;50.718;7.072;2023-06-10T13:37:45;9.13;;;7.50;;
14235;SDS011;7202;50.718;7.072;2023-06-10T13:40:14;9.98;;;7.65;;
14235;SDS011;7202;50.718;7.072;2023-06-10T13:42:43;15.27;;;12.50;;
14235;SDS011;7202;50.718;7.072;2023-06-10T13:45:17;7.88;;;6.72;;
14235;SDS011;7202;50.718;7.072;2023-06-10T13:47:46;6.70;;;5.70;;
14235;SDS011;7202;50.718;7.072;2023-06-10T13:50:15;6.68;;;5.32;;
14235;SDS011;7202;50.718;7.072;2023-06-10T13:52:44;8.07;;;5.78;;
14235;SDS011;7202;50.718;7.072;2023-06-10T13:55:12;7.55;;;6.65;;
14235;SDS011;7202;50.718;7.072;2023-06-10T13:57:42;7.65;;;5.82;;
14235;SDS011;7202;50.718;7.072;2023-06-10T14:00:11;8.23;;;5.40;;
14235;SDS011;7202;50.718;7.072;2023-06-10T14:02:40;5.97;;;4.80;;
14235;SDS011;7202;50.718;7.072;2023-06-10T14:05:09;7.68;;;5.80;;
14235;SDS011;7202;50.718;7.072;2023-06-10T14:07:38;5.70;;;5.18;;
14235;SDS011;7202;50.718;7.072;2023-06-10T14:10:08;7.65;;;4.95;;
14235;SDS011;7202;50.718;7.072;2023-06-10T14:12:37;6.28;;;4.65;;
14235;SDS011;7202;50.718;7.072;2023-06-10T14:15:07;5.15;;;4.32;;
14235;SDS011;7202;50.718;7.072;2023-06-10T14:17:37;6.13;;;5.57;;
14235;SDS011;7202;50.718;7.072;2023-06-10T14:20:06;16.70;;;14.73;;
14235;SDS011;7202;50.718;7.072;2023-06-10T14:22:35;7.90;;;7.10;;
14235;SDS011;7202;50.718;7.072;2023-06-10T14:25:07;11.73;;;10.52;;
14235;SDS011;7202;50.718;7.072;2023-06-10T14:27:36;8.27;;;5.57;;
14235;SDS011;7202;50.718;7.072;2023-06-10T14:30:07;6.97;;;4.97;;
14235;SDS011;7202;50.718;7.072;2023-06-10T14:32:36;8.57;;;5.10;;
14235;SDS011;7202;50.718;7.072;2023-06-10T14:35:05;10.80;;;9.55;;
14235;SDS011;7202;50.718;7.072;2023-06-10T14:37:35;6.43;;;5.82;;
14235;SDS011;7202;50.718;7.072;2023-06-10T14:40:04;6.65;;;5.43;;
14235;SDS011;7202;50.718;7.072;2023-06-10T14:42:33;8.15;;;5.53;;
14235;SDS011;7202;50.718;7.072;2023-06-10T14:45:03;7.30;;;5.03;;
14235;SDS011;7202;50.718;7.072;2023-06-10T14:47:34;7.88;;;5.22;;
14235;SDS011;7202;50.718;7.072;2023-06-10T14:50:03;5.72;;;4.70;;
14235;SDS011;7202;50.718;7.072;2023-06-10T14:52:34;10.23;;;5.82;;
14235;SDS011;7202;50.718;7.072;2023-06-10T14:55:03;6.35;;;5.75;;
14235;SDS011;7202;50.718;7.072;2023-06-10T14:57:32;14.30;;;12.15;;
14235;SDS011;7202;50.718;7.072;2023-06-10T15:00:03;12.45;;;8.50;;
14235;SDS011;7202;50.718;7.072;2023-06-10T15:02:33;7.80;;;7.00;;
14235;SDS011;7202;50.718;7.072;2023-06-10T15:05:02;5.93;;;4.75;;
14235;SDS011;7202;50.718;7.072;2023-06-10T15:07:31;6.25;;;5.30;;
14235;SDS011;7202;50.718;7.072;2023-06-10T15:10:00;6.43;;;5.80;;
14235;SDS011;7202;50.718;7.072;2023-06-10T15:12:29;6.60;;;4.95;;
14235;SDS011;7202;50.718;7.072;2023-06-10T15:14:58;5.55;;;5.00;;
14235;SDS011;7202;50.718;7.072;2023-06-10T15:17:26;5.45;;;4.95;;
14235;SDS011;7202;50.718;7.072;2023-06-10T15:19:57;4.90;;;4.50;;
14235;SDS011;7202;50.718;7.072;2023-06-10T15:22:25;5.63;;;4.60;;